Terminal Aerodrome Forecast
Issued by NWS Blacksburg, VA

Current Version | Previous Version | Text Only | Print | Product List | Glossary Off
Versions: 1 2 3 4 5 6 7 8 9 10 11 12 13 14 15 16 17 18 19 20 21 22 23 24 25 26

124
FTUS41 KRNK 191729
TAFBLF
TAF
KBLF 191729Z 1918/2018 30015G26KT P6SM VCSH BKN020
     FM200000 31010G20KT P6SM SCT025
     FM200400 31005KT P6SM FEW050=

USA.gov is the U.S. government's official web portal to all federal, state and local government web resources and services.